Tuesday, September 16, 2014
07:31 UTC
  |  Log In   |  Register Free
Airport Search:

Farmington Regional Airport
(KFAM)

Farmington Regional Airport Diagram
No Airport Diagram Available

FAA data valid effective July 24, 2014 until September 18, 2014 (unless otherwise noted).

 
 
 
 
 
 
 
 
 
 
 
 
 
 

Current Aviation Weather for Farmington Regional Airport (KFAM)

The most recent METAR observation for KFAM was updated at: 0710
METAR Summary (Translated METAR)
KFAM
160655Z AUTO 35004KT 10SM SCT050 OVC060 16/14 A3018 RMK AO1
KSAR
160655Z AUTO 36007KT 10SM OVC009 15/14 A3018 RMK AO2 T01500139
(41.6 nm NE from KFAM)
KSAR
160655Z AUTO 36007KT 10SM OVC009 15/14 A3018 RMK AO2 T01500139
(41.6 nm NE from KFAM)
TAF
No TAF information found within 50 nm of KFAM
  Airport Weather Conditions for KFAM

 Current Weather at FAM
61° F
Overcast
North winds at 4.6 mph
FAM NOAA Radar

Pressure: 30.18 in
Humidity: 88%
Wind: North at 4.6 MPH (4 KT)
Dew Point: 57.2°F
Visibility: 10.00 mi


Airport Weather Forecast for KFAM

Translated METAR and TAF for KFAM
Translated METAR for KFAM (0725 UTC 16 September 2014)
found at http://aviationweather.gov/adds/metars/
 
METAR text: KFAM 160715Z AUTO 02005KT 10SM BKN050 OVC060 16/14 A3019 RMK AO1
Conditions at: KFAM (FARMINGTON , MO, US) observed 0715 UTC 16 September 2014
Temperature: 16.0°C (61°F)
Dewpoint: 14.0°C (57°F) [RH = 88%]
Pressure (altimeter): 30.19 inches Hg (1022.4 mb)
Winds: from the NNE (20 degrees) at 6 MPH (5 knots; 2.6 m/s)
Visibility: 10 or more miles (16+ km)
Ceiling: 5000 feet AGL
Clouds: broken clouds at 5000 feet AGL
overcast cloud deck at 6000 feet AGL
Weather: automated observation with no human augmentation;
there may or may not be significant weather present at this time
Translated TAF for KFAM

There is no translated TAF available for this airport

Find All Airport Services Find A Hotel Find A Rental Car Find A Golf Course Find A Restaurant $100 Hamburger



FBO's on the Field
FBO Company Facility Photos Services Transportation Aviation Fuel Prices: Prices include tax
Catering Weather Repair Courtesy Rental Type 100LL JetA JetA+ MOGAS 8087
 
Farmington Regional Airport

This FBO has not yet been rated
FS:Shell
Last Updated: Sep-04
Login to update fuel prices
SS:
Contact Farmington Regional AirportMore FBO Information
 
Add another FBO Facility Photos Catering Weather Repair Courtesy Rental Type 100LL JetA JetA+ MOGAS 8087
Services Transportation Aviation Fuel Prices: Prices include tax


model-print
model-print
model-print
model-print